Aviation Digital Data Service (ADDS)

Output produced by METARs form (2326 UTC 17 January 2017)
found at http://www.aviationweather.gov/adds/metars/
 
KMDT 172256Z 12004KT 2 1/2SM -RA BR OVC006 04/04 A2998 RMK AO2 RAB28 SLP157 P0003 T00440044
KMDT 172228Z 00000KT 2 1/2SM RA BR OVC006 04/04 A2999 RMK AO2 RAB28 P0002 T00440044
KMDT 172156Z 10003KT 4SM BR OVC006 05/05 A2999 RMK AO2 RAE11B32E53 SLP158 P0004 T00500050
KMDT 172056Z 12008KT 2SM RA BR OVC007 04/04 A2999 RMK AO2 RAB07 SLP157 P0008 60008 T00440044 56022
KMDT 172036Z 12004KT 2 1/2SM RA BR OVC007 05/04 A3000 RMK AO2 RAB07 P0002 T00500044
KMDT 171956Z 13008KT 4SM BR OVC008 05/04 A2999 RMK AO2 SLP158 T00500039
KMDT 171856Z 13004KT 3SM BR OVC008 04/04 A3003 RMK AO2 SLP172 T00440039
KMDT 171820Z 13004KT 3SM BR OVC009 04/03 A3004 RMK AO2 T00440033
KMDT 171756Z 16003KT 2SM BR OVC009 03/03 A3005 RMK AO2 RAB15E53 SLP180 P0001 60001 T00330028 10044 20017 58031
KMDT 171742Z 00000KT 2 1/2SM -RA BR OVC008 04/03 A3006 RMK AO2 RAB15 P0001 T00390028
KMDT 171656Z 10007KT 3SM BR OVC008 04/03 A3009 RMK AO2 RAB41E52 SLP191 P0000 T00440028
KMDT 171556Z 13004KT 3SM BR OVC009 02/01 A3014 RMK AO2 SLP210 T00220011
KMDT 171534Z 14003KT 4SM BR OVC010 03/01 A3016 RMK AO2 T00280011
KMDT 171456Z 00000KT 5SM BR OVC009 03/01 A3018 RMK AO2 RAB04E25 SLP221 P0000 60000 T00280006 58002
KMDT 171454Z 00000KT 5SM BR OVC009 03/01 A3018 RMK AO2 RAB04E25 P0000
KMDT 171356Z 00000KT 5SM HZ OVC011 02/M01 A3020 RMK AO2 SLP228 T00221006
KMDT 171256Z 00000KT 6SM HZ OVC013 02/M01 A3018 RMK AO2 SLP223 T00221006
KMDT 171229Z 00000KT 7SM OVC014 02/M01 A3018 RMK AO2 T00221011
KMDT 171156Z 00000KT 7SM OVC015 02/M01 A3019 RMK AO2 SLP225 T00221011 10022 20011 56013
KMDT 171127Z 00000KT 7SM OVC015 02/M01 A3018 RMK AO2 T00171011
KMDT 171056Z 00000KT 7SM OVC014 02/M01 A3020 RMK AO2 SLP228 T00171011
KMDT 170956Z 00000KT 9SM OVC016 02/M01 A3021 RMK AO2 SLP232 T00221011
KMDT 170856Z 00000KT 9SM BKN017 OVC050 02/M01 A3022 RMK AO2 SLP238 T00171011 58012
KMDT 170822Z 00000KT 9SM SCT020 OVC033 02/M02 A3023 RMK AO2 T00221017
KMDT 170756Z 00000KT 10SM OVC021 02/M01 A3025 RMK AO2 SLP245 T00221011
KMDT 170656Z 00000KT 9SM OVC022 02/M02 A3024 RMK AO2 SLP245 T00221017
KMDT 170556Z 00000KT 10SM SCT017 OVC024 02/M01 A3026 RMK AO2 SLP251 60000 T00221011 10022 20017 56021
KMDT 170456Z 00000KT 10SM OVC017 02/M02 A3028 RMK AO2 SLP257 T00221017 400281072
KMDT 170356Z 12003KT 9SM OVC019 02/M02 A3030 RMK AO2 SLP263 T00221017
KMDT 170256Z 00000KT 10SM BKN025 OVC036 02/M02 A3032 RMK AO2 SLP272 60000 T00221022 56008
KMDT 170217Z 00000KT 10SM BKN027 OVC036 02/M02 A3033 RMK AO2 T00221017
KMDT 170156Z 00000KT 9SM FEW028 SCT039 OVC065 02/M01 A3033 RMK AO2 RAB09E28 SLP275 P0000 T00221011
KMDT 170056Z 13003KT 10SM SCT043 BKN065 02/M02 A3033 RMK AO2 SLP275 T00221022
KMDT 162356Z 00000KT 9SM FEW027 SCT049 OVC065 02/M01 A3034 RMK AO2 SLP280 T00221011 10028 20011 58007
KMDT 162256Z 00000KT 10SM SCT027 OVC065 02/M03 A3036 RMK AO2 SLP284 T00221028
KMDT 162156Z 00000KT 10SM OVC080 02/M03 A3036 RMK AO2 SLP284 T00221028
KMDT 162120Z 00000KT 9SM SCT028 OVC090 02/M03 A3036 RMK AO2 T00221028
KMDT 162056Z 00000KT 9SM OVC027 03/M03 A3036 RMK AO2 SLP287 T00281028 56009
KMDT 161956Z 13004KT 9SM BKN021 OVC030 02/M04 A3036 RMK AO2 SLP287 T00221039
KMDT 161856Z 14005KT 9SM OVC020 02/M04 A3037 RMK AO2 SLP287 T00221039
KMDT 161756Z 14004KT 8SM OVC022 01/M04 A3039 RMK AO2 SLP296 I6000 T00111039 10011 21067 58024
KMDT 161656Z 13003KT 8SM BKN027 OVC250 01/M04 A3044 RMK AO2 SLP311 T00061044
KMDT 161634Z 14004KT 8SM BKN027 OVC250 01/M04 A3044 RMK AO2 T00061044
KMDT 161556Z 14004KT 8SM BKN250 00/M04 A3046 RMK AO2 SLP319 T00001044
KMDT 161456Z 12003KT 4SM HZ CLR M01/M04 A3047 RMK AO2 SLP321 I3000 T10111039 52002
KMDT 161356Z 00000KT 6SM BR BKN250 M03/M06 A3047 RMK AO2 SLP322 T10331056
KMDT 161256Z 00000KT 5SM BR BKN250 M06/M06 A3046 RMK AO2 SLP320 I1000 T10561061
KMDT 161156Z 00000KT 7SM SCT250 M07/M07 A3046 RMK AO2 SLP320 I1000 I6000 T10671072 11044 21072 53009